sensor_id;sensor_type;location;lat;lon;timestamp;pressure;altitude;pressure_sealevel;temperature;humidity
77288;BME280;66345;42.694;23.346;2023-11-19T00:00:50;95519.19;;;3.79;68.07
77288;BME280;66345;42.694;23.346;2023-11-19T00:03:16;95520.66;;;3.64;67.82
77288;BME280;66345;42.694;23.346;2023-11-19T00:05:41;95516.56;;;3.51;68.38
77288;BME280;66345;42.694;23.346;2023-11-19T00:08:07;95521.34;;;3.66;68.50
77288;BME280;66345;42.694;23.346;2023-11-19T00:10:33;95516.50;;;3.61;67.66
77288;BME280;66345;42.694;23.346;2023-11-19T00:12:59;95518.97;;;3.62;67.91
77288;BME280;66345;42.694;23.346;2023-11-19T00:15:24;95505.28;;;3.69;67.64
77288;BME280;66345;42.694;23.346;2023-11-19T00:17:50;95513.38;;;3.57;68.25
77288;BME280;66345;42.694;23.346;2023-11-19T00:20:17;95510.28;;;3.62;67.99
77288;BME280;66345;42.694;23.346;2023-11-19T00:22:43;95520.22;;;3.68;67.58
77288;BME280;66345;42.694;23.346;2023-11-19T00:25:09;95522.72;;;3.60;67.85
77288;BME280;66345;42.694;23.346;2023-11-19T00:27:35;95523.28;;;3.64;67.58
77288;BME280;66345;42.694;23.346;2023-11-19T00:30:03;95527.97;;;3.60;67.81
77288;BME280;66345;42.694;23.346;2023-11-19T00:32:30;95522.72;;;3.60;68.16
77288;BME280;66345;42.694;23.346;2023-11-19T00:34:56;95518.03;;;3.64;67.88
77288;BME280;66345;42.694;23.346;2023-11-19T00:37:21;95530.19;;;3.65;67.47
77288;BME280;66345;42.694;23.346;2023-11-19T00:39:47;95531.44;;;3.60;68.20
77288;BME280;66345;42.694;23.346;2023-11-19T00:42:12;95527.81;;;3.61;67.35
77288;BME280;66345;42.694;23.346;2023-11-19T00:44:39;95529.47;;;3.62;67.67
77288;BME280;66345;42.694;23.346;2023-11-19T00:47:04;95532.56;;;3.58;68.28
77288;BME280;66345;42.694;23.346;2023-11-19T00:49:30;95530.19;;;3.65;68.05
77288;BME280;66345;42.694;23.346;2023-11-19T00:51:58;95532.91;;;3.73;67.92
77288;BME280;66345;42.694;23.346;2023-11-19T00:54:24;95538.19;;;3.63;67.25
77288;BME280;66345;42.694;23.346;2023-11-19T00:56:51;95527.31;;;3.58;68.58
77288;BME280;66345;42.694;23.346;2023-11-19T00:59:18;95536.66;;;3.60;68.25
77288;BME280;66345;42.694;23.346;2023-11-19T01:01:43;95533.78;;;3.54;68.18
77288;BME280;66345;42.694;23.346;2023-11-19T01:04:08;95533.53;;;3.57;68.48
77288;BME280;66345;42.694;23.346;2023-11-19T01:06:34;95534.09;;;3.51;68.43
77288;BME280;66345;42.694;23.346;2023-11-19T01:08:59;95546.66;;;3.47;68.88
77288;BME280;66345;42.694;23.346;2023-11-19T01:11:26;95546.53;;;3.49;69.00
77288;BME280;66345;42.694;23.346;2023-11-19T01:13:52;95546.25;;;3.52;69.04
77288;BME280;66345;42.694;23.346;2023-11-19T01:16:18;95546.28;;;3.42;68.31
77288;BME280;66345;42.694;23.346;2023-11-19T01:18:44;95543.56;;;3.34;68.41
77288;BME280;66345;42.694;23.346;2023-11-19T01:21:10;95545.72;;;3.39;68.88
77288;BME280;66345;42.694;23.346;2023-11-19T01:23:35;95534.09;;;3.51;68.68
77288;BME280;66345;42.694;23.346;2023-11-19T01:26:02;95537.69;;;3.50;68.86
77288;BME280;66345;42.694;23.346;2023-11-19T01:28:28;95521.69;;;3.43;68.65
77288;BME280;66345;42.694;23.346;2023-11-19T01:30:53;95537.19;;;3.37;68.83
77288;BME280;66345;42.694;23.346;2023-11-19T01:33:19;95548.72;;;3.53;68.75
77288;BME280;66345;42.694;23.346;2023-11-19T01:35:44;95548.44;;;3.56;68.07
77288;BME280;66345;42.694;23.346;2023-11-19T01:38:10;95557.84;;;3.49;68.23
77288;BME280;66345;42.694;23.346;2023-11-19T01:40:36;95547.53;;;3.38;68.46
77288;BME280;66345;42.694;23.346;2023-11-19T01:43:02;95554.81;;;3.44;68.18
77288;BME280;66345;42.694;23.346;2023-11-19T01:45:29;95546.84;;;3.36;68.16
77288;BME280;66345;42.694;23.346;2023-11-19T01:48:00;95562.84;;;3.43;68.80
77288;BME280;66345;42.694;23.346;2023-11-19T01:50:27;95556.22;;;3.48;67.74
77288;BME280;66345;42.694;23.346;2023-11-19T01:52:54;95567.78;;;3.46;67.48
77288;BME280;66345;42.694;23.346;2023-11-19T01:55:20;95548.09;;;3.32;67.58
77288;BME280;66345;42.694;23.346;2023-11-19T01:57:48;95566.75;;;3.29;67.69
77288;BME280;66345;42.694;23.346;2023-11-19T02:00:14;95564.69;;;3.32;67.79
77288;BME280;66345;42.694;23.346;2023-11-19T02:02:42;95545.78;;;3.29;67.62
77288;BME280;66345;42.694;23.346;2023-11-19T02:05:09;95560.97;;;3.16;67.92
77288;BME280;66345;42.694;23.346;2023-11-19T02:07:35;95547.97;;;3.24;67.46
77288;BME280;66345;42.694;23.346;2023-11-19T02:10:01;95537.50;;;3.24;67.09
77288;BME280;66345;42.694;23.346;2023-11-19T02:12:28;95536.00;;;3.21;67.41
77288;BME280;66345;42.694;23.346;2023-11-19T02:14:54;95537.53;;;3.14;67.49
77288;BME280;66345;42.694;23.346;2023-11-19T02:17:30;95531.97;;;3.17;68.02
77288;BME280;66345;42.694;23.346;2023-11-19T02:19:59;95540.00;;;3.16;67.82
77288;BME280;66345;42.694;23.346;2023-11-19T02:22:25;95535.06;;;3.13;67.80
77288;BME280;66345;42.694;23.346;2023-11-19T02:24:53;95534.22;;;3.12;67.93
77288;BME280;66345;42.694;23.346;2023-11-19T02:30:11;95538.50;;;3.13;67.86
77288;BME280;66345;42.694;23.346;2023-11-19T02:32:36;95535.91;;;3.03;67.76
77288;BME280;66345;42.694;23.346;2023-11-19T02:35:05;95541.41;;;3.10;67.76
77288;BME280;66345;42.694;23.346;2023-11-19T02:37:31;95530.94;;;3.10;67.68
77288;BME280;66345;42.694;23.346;2023-11-19T02:39:56;95543.06;;;3.01;68.00
77288;BME280;66345;42.694;23.346;2023-11-19T02:42:22;95543.22;;;3.00;68.49
77288;BME280;66345;42.694;23.346;2023-11-19T02:44:47;95533.97;;;2.86;68.25
77288;BME280;66345;42.694;23.346;2023-11-19T02:47:13;95538.13;;;2.98;68.93
77288;BME280;66345;42.694;23.346;2023-11-19T02:49:39;95546.25;;;2.86;68.13
77288;BME280;66345;42.694;23.346;2023-11-19T02:52:05;95542.81;;;2.85;68.46
77288;BME280;66345;42.694;23.346;2023-11-19T02:54:31;95539.53;;;2.83;69.10
77288;BME280;66345;42.694;23.346;2023-11-19T02:57:00;95536.22;;;2.81;69.34
77288;BME280;66345;42.694;23.346;2023-11-19T02:59:28;95530.84;;;2.83;68.75
77288;BME280;66345;42.694;23.346;2023-11-19T03:02:04;95547.38;;;2.83;69.69
77288;BME280;66345;42.694;23.346;2023-11-19T03:04:31;95533.47;;;2.73;69.19
77288;BME280;66345;42.694;23.346;2023-11-19T03:06:57;95544.78;;;2.73;69.15
77288;BME280;66345;42.694;23.346;2023-11-19T03:09:23;95542.28;;;2.72;69.74
77288;BME280;66345;42.694;23.346;2023-11-19T03:11:49;95538.81;;;2.71;68.93
77288;BME280;66345;42.694;23.346;2023-11-19T03:14:15;95545.75;;;2.72;68.79
77288;BME280;66345;42.694;23.346;2023-11-19T03:16:40;95543.94;;;2.73;69.16
77288;BME280;66345;42.694;23.346;2023-11-19T03:19:06;95545.59;;;2.74;69.80
77288;BME280;66345;42.694;23.346;2023-11-19T03:21:31;95544.50;;;2.76;69.12
77288;BME280;66345;42.694;23.346;2023-11-19T03:24:00;95556.75;;;2.76;69.12
77288;BME280;66345;42.694;23.346;2023-11-19T03:26:28;95547.81;;;2.69;69.65
77288;BME280;66345;42.694;23.346;2023-11-19T03:28:54;95544.22;;;2.70;69.72
77288;BME280;66345;42.694;23.346;2023-11-19T03:31:20;95549.88;;;2.75;69.09
77288;BME280;66345;42.694;23.346;2023-11-19T03:33:46;95543.81;;;2.74;69.74
77288;BME280;66345;42.694;23.346;2023-11-19T03:36:12;95544.63;;;2.75;69.50
77288;BME280;66345;42.694;23.346;2023-11-19T03:38:38;95542.84;;;2.66;69.08
77288;BME280;66345;42.694;23.346;2023-11-19T03:41:13;95546.16;;;2.68;69.50
77288;BME280;66345;42.694;23.346;2023-11-19T03:43:40;95562.41;;;2.71;69.60
77288;BME280;66345;42.694;23.346;2023-11-19T03:46:19;95553.44;;;2.64;69.63
77288;BME280;66345;42.694;23.346;2023-11-19T03:48:45;95563.81;;;2.66;69.47
77288;BME280;66345;42.694;23.346;2023-11-19T03:51:12;95580.75;;;2.62;69.13
77288;BME280;66345;42.694;23.346;2023-11-19T03:53:42;95596.91;;;2.67;69.30
77288;BME280;66345;42.694;23.346;2023-11-19T03:56:08;95587.78;;;2.61;69.67
77288;BME280;66345;42.694;23.346;2023-11-19T03:58:34;95574.97;;;2.58;69.80
77288;BME280;66345;42.694;23.346;2023-11-19T04:01:01;95580.34;;;2.66;69.67
77288;BME280;66345;42.694;23.346;2023-11-19T04:03:26;95581.44;;;2.64;69.59
77288;BME280;66345;42.694;23.346;2023-11-19T04:05:52;95593.03;;;2.71;69.17
77288;BME280;66345;42.694;23.346;2023-11-19T04:08:17;95590.41;;;2.71;69.20
77288;BME280;66345;42.694;23.346;2023-11-19T04:10:42;95601.84;;;2.79;69.70
77288;BME280;66345;42.694;23.346;2023-11-19T04:13:08;95597.84;;;2.75;69.52
77288;BME280;66345;42.694;23.346;2023-11-19T04:15:33;95615.94;;;2.88;69.28
77288;BME280;66345;42.694;23.346;2023-11-19T04:17:59;95627.09;;;2.90;68.88
77288;BME280;66345;42.694;23.346;2023-11-19T04:20:24;95618.94;;;2.93;68.25
77288;BME280;66345;42.694;23.346;2023-11-19T04:22:50;95607.50;;;2.85;68.61
77288;BME280;66345;42.694;23.346;2023-11-19T04:25:16;95615.38;;;3.04;68.38
77288;BME280;66345;42.694;23.346;2023-11-19T04:27:42;95608.72;;;3.00;68.42
77288;BME280;66345;42.694;23.346;2023-11-19T04:30:07;95607.22;;;3.07;68.23
77288;BME280;66345;42.694;23.346;2023-11-19T04:32:35;95618.13;;;3.02;68.41
77288;BME280;66345;42.694;23.346;2023-11-19T04:35:00;95621.00;;;3.09;68.74
77288;BME280;66345;42.694;23.346;2023-11-19T04:37:26;95619.78;;;3.03;67.88
77288;BME280;66345;42.694;23.346;2023-11-19T04:39:51;95614.41;;;3.05;68.49
77288;BME280;66345;42.694;23.346;2023-11-19T04:42:17;95612.59;;;3.05;67.53
77288;BME280;66345;42.694;23.346;2023-11-19T04:44:43;95630.25;;;3.13;68.34
77288;BME280;66345;42.694;23.346;2023-11-19T04:47:08;95624.75;;;3.06;67.74
77288;BME280;66345;42.694;23.346;2023-11-19T04:49:40;95621.69;;;3.01;68.37
77288;BME280;66345;42.694;23.346;2023-11-19T04:52:05;95630.81;;;2.97;67.31
77288;BME280;66345;42.694;23.346;2023-11-19T04:54:31;95634.94;;;3.10;67.81
77288;BME280;66345;42.694;23.346;2023-11-19T04:56:56;95636.06;;;2.97;68.04
77288;BME280;66345;42.694;23.346;2023-11-19T04:59:21;95647.50;;;2.96;67.49
77288;BME280;66345;42.694;23.346;2023-11-19T05:01:47;95641.59;;;3.04;67.80
77288;BME280;66345;42.694;23.346;2023-11-19T05:04:14;95641.44;;;3.05;67.19
77288;BME280;66345;42.694;23.346;2023-11-19T05:06:40;95656.63;;;3.12;67.27
77288;BME280;66345;42.694;23.346;2023-11-19T05:09:05;95661.16;;;3.10;67.72
77288;BME280;66345;42.694;23.346;2023-11-19T05:11:33;95663.78;;;3.10;66.80
77288;BME280;66345;42.694;23.346;2023-11-19T05:13:59;95655.78;;;3.01;67.74
77288;BME280;66345;42.694;23.346;2023-11-19T05:16:25;95649.97;;;3.17;67.31
77288;BME280;66345;42.694;23.346;2023-11-19T05:18:50;95657.31;;;3.04;67.59
77288;BME280;66345;42.694;23.346;2023-11-19T05:21:15;95654.84;;;3.02;67.33
77288;BME280;66345;42.694;23.346;2023-11-19T05:23:42;95650.53;;;3.01;67.29
77288;BME280;66345;42.694;23.346;2023-11-19T05:26:08;95644.91;;;2.96;67.42
77288;BME280;66345;42.694;23.346;2023-11-19T05:28:37;95647.78;;;2.93;67.55
77288;BME280;66345;42.694;23.346;2023-11-19T05:31:04;95647.50;;;2.96;67.41
77288;BME280;66345;42.694;23.346;2023-11-19T05:33:31;95652.75;;;3.06;67.64
77288;BME280;66345;42.694;23.346;2023-11-19T05:35:56;95646.53;;;2.97;66.98
77288;BME280;66345;42.694;23.346;2023-11-19T05:38:22;95667.66;;;3.05;67.29
77288;BME280;66345;42.694;23.346;2023-11-19T05:40:47;95667.25;;;3.10;67.80
77288;BME280;66345;42.694;23.346;2023-11-19T05:43:13;95658.28;;;3.13;67.57
77288;BME280;66345;42.694;23.346;2023-11-19T05:45:40;95663.94;;;3.18;66.65
77288;BME280;66345;42.694;23.346;2023-11-19T05:48:05;95659.91;;;3.14;66.37
77288;BME280;66345;42.694;23.346;2023-11-19T05:50:31;95664.03;;;3.16;66.28
77288;BME280;66345;42.694;23.346;2023-11-19T05:52:56;95666.13;;;3.13;66.74
77288;BME280;66345;42.694;23.346;2023-11-19T05:55:21;95660.34;;;2.99;67.04
77288;BME280;66345;42.694;23.346;2023-11-19T05:57:48;95670.56;;;3.12;66.42
77288;BME280;66345;42.694;23.346;2023-11-19T06:00:14;95677.59;;;3.12;66.54
77288;BME280;66345;42.694;23.346;2023-11-19T06:02:40;95685.72;;;3.18;66.21
77288;BME280;66345;42.694;23.346;2023-11-19T06:05:06;95690.97;;;3.28;66.74
77288;BME280;66345;42.694;23.346;2023-11-19T06:07:32;95680.19;;;3.21;66.54
77288;BME280;66345;42.694;23.346;2023-11-19T06:09:58;95692.06;;;3.16;66.54
77288;BME280;66345;42.694;23.346;2023-11-19T06:12:23;95703.09;;;3.29;65.92
77288;BME280;66345;42.694;23.346;2023-11-19T06:14:49;95697.59;;;3.22;66.52
77288;BME280;66345;42.694;23.346;2023-11-19T06:17:14;95692.31;;;3.32;66.29
77288;BME280;66345;42.694;23.346;2023-11-19T06:19:40;95704.88;;;3.38;66.21
77288;BME280;66345;42.694;23.346;2023-11-19T06:22:05;95693.16;;;3.42;65.82
77288;BME280;66345;42.694;23.346;2023-11-19T06:24:31;95686.00;;;3.34;66.16
77288;BME280;66345;42.694;23.346;2023-11-19T06:26:57;95680.06;;;3.32;65.93
77288;BME280;66345;42.694;23.346;2023-11-19T06:29:23;95686.25;;;3.31;66.66
77288;BME280;66345;42.694;23.346;2023-11-19T06:31:48;95691.50;;;3.31;66.19
77288;BME280;66345;42.694;23.346;2023-11-19T06:34:14;95679.25;;;3.03;66.29
77288;BME280;66345;42.694;23.346;2023-11-19T06:36:40;95679.78;;;3.16;66.68
77288;BME280;66345;42.694;23.346;2023-11-19T06:39:06;95684.59;;;3.30;66.30
77288;BME280;66345;42.694;23.346;2023-11-19T06:41:31;95695.34;;;3.47;65.51
77288;BME280;66345;42.694;23.346;2023-11-19T06:43:57;95671.75;;;3.56;65.23
77288;BME280;66345;42.694;23.346;2023-11-19T06:46:23;95689.13;;;3.67;65.03
77288;BME280;66345;42.694;23.346;2023-11-19T06:48:48;95683.47;;;3.52;65.27
77288;BME280;66345;42.694;23.346;2023-11-19T06:51:14;95697.56;;;3.51;64.97
77288;BME280;66345;42.694;23.346;2023-11-19T06:53:40;95686.09;;;3.52;64.63
77288;BME280;66345;42.694;23.346;2023-11-19T06:56:25;95694.00;;;3.43;65.32
77288;BME280;66345;42.694;23.346;2023-11-19T06:58:51;95688.19;;;3.39;65.10
77288;BME280;66345;42.694;23.346;2023-11-19T07:01:17;95693.44;;;3.39;64.69
77288;BME280;66345;42.694;23.346;2023-11-19T07:03:47;95696.75;;;3.41;64.67
77288;BME280;66345;42.694;23.346;2023-11-19T07:06:13;95704.50;;;3.33;64.38
77288;BME280;66345;42.694;23.346;2023-11-19T07:08:40;95699.22;;;3.23;65.00
77288;BME280;66345;42.694;23.346;2023-11-19T07:11:06;95714.00;;;3.53;63.87
77288;BME280;66345;42.694;23.346;2023-11-19T07:13:31;95709.97;;;3.59;63.41
77288;BME280;66345;42.694;23.346;2023-11-19T07:15:57;95691.19;;;3.54;63.27
77288;BME280;66345;42.694;23.346;2023-11-19T07:18:23;95695.22;;;3.48;63.53
77288;BME280;66345;42.694;23.346;2023-11-19T07:20:49;95696.97;;;3.67;63.45
77288;BME280;66345;42.694;23.346;2023-11-19T07:23:14;95702.69;;;3.43;63.20
77288;BME280;66345;42.694;23.346;2023-11-19T07:25:43;95721.03;;;3.43;63.99
77288;BME280;66345;42.694;23.346;2023-11-19T07:28:08;95712.22;;;3.44;64.34
77288;BME280;66345;42.694;23.346;2023-11-19T07:30:35;95713.31;;;3.42;64.01
77288;BME280;66345;42.694;23.346;2023-11-19T07:33:01;95722.72;;;3.34;64.89
77288;BME280;66345;42.694;23.346;2023-11-19T07:35:29;95750.03;;;3.42;64.03
77288;BME280;66345;42.694;23.346;2023-11-19T07:37:56;95752.09;;;3.38;63.79
77288;BME280;66345;42.694;23.346;2023-11-19T07:40:23;95740.09;;;3.26;64.10
77288;BME280;66345;42.694;23.346;2023-11-19T07:42:48;95746.31;;;3.34;64.73
77288;BME280;66345;42.694;23.346;2023-11-19T07:45:14;95737.88;;;3.50;64.23
77288;BME280;66345;42.694;23.346;2023-11-19T07:47:40;95741.63;;;4.14;61.56
77288;BME280;66345;42.694;23.346;2023-11-19T07:50:05;95725.72;;;4.25;60.28
77288;BME280;66345;42.694;23.346;2023-11-19T07:52:31;95742.53;;;3.95;61.54
77288;BME280;66345;42.694;23.346;2023-11-19T07:54:56;95743.88;;;3.99;61.84
77288;BME280;66345;42.694;23.346;2023-11-19T07:57:22;95749.59;;;4.32;60.96
77288;BME280;66345;42.694;23.346;2023-11-19T07:59:49;95750.03;;;4.27;60.45
77288;BME280;66345;42.694;23.346;2023-11-19T08:02:14;95749.09;;;4.18;60.51
77288;BME280;66345;42.694;23.346;2023-11-19T08:04:41;95751.41;;;4.22;60.42
77288;BME280;66345;42.694;23.346;2023-11-19T08:07:10;95759.41;;;4.30;60.62
77288;BME280;66345;42.694;23.346;2023-11-19T08:09:36;95753.09;;;4.13;61.11
77288;BME280;66345;42.694;23.346;2023-11-19T08:12:03;95748.13;;;4.20;60.39
77288;BME280;66345;42.694;23.346;2023-11-19T08:14:28;95755.38;;;3.69;62.13
77288;BME280;66345;42.694;23.346;2023-11-19T08:16:54;95761.09;;;3.65;61.86
77288;BME280;66345;42.694;23.346;2023-11-19T08:19:19;95769.06;;;3.73;62.04
77288;BME280;66345;42.694;23.346;2023-11-19T08:21:45;95767.00;;;3.67;62.04
77288;BME280;66345;42.694;23.346;2023-11-19T08:24:10;95771.56;;;3.74;62.11
77288;BME280;66345;42.694;23.346;2023-11-19T08:26:36;95760.25;;;3.54;62.62
77288;BME280;66345;42.694;23.346;2023-11-19T08:29:01;95768.25;;;3.62;62.70
77288;BME280;66345;42.694;23.346;2023-11-19T08:31:27;95767.44;;;3.52;62.52
77288;BME280;66345;42.694;23.346;2023-11-19T08:33:52;95762.44;;;3.69;62.37
77288;BME280;66345;42.694;23.346;2023-11-19T08:36:17;95759.44;;;3.64;62.33
77288;BME280;66345;42.694;23.346;2023-11-19T08:38:43;95779.31;;;3.56;61.92
77288;BME280;66345;42.694;23.346;2023-11-19T08:41:08;95785.66;;;3.54;63.11
77288;BME280;66345;42.694;23.346;2023-11-19T08:43:34;95787.19;;;3.66;62.48
77288;BME280;66345;42.694;23.346;2023-11-19T08:45:59;95787.44;;;3.73;62.21
77288;BME280;66345;42.694;23.346;2023-11-19T08:48:25;95788.41;;;3.52;62.82
77288;BME280;66345;42.694;23.346;2023-11-19T08:50:51;95791.47;;;3.48;62.28
77288;BME280;66345;42.694;23.346;2023-11-19T08:53:16;95783.56;;;3.38;63.17
77288;BME280;66345;42.694;23.346;2023-11-19T08:55:42;95788.84;;;3.57;62.31
77288;BME280;66345;42.694;23.346;2023-11-19T08:58:07;95788.53;;;3.70;61.83
77288;BME280;66345;42.694;23.346;2023-11-19T09:00:33;95781.22;;;3.83;61.38
77288;BME280;66345;42.694;23.346;2023-11-19T09:02:58;95778.41;;;4.04;61.11
77288;BME280;66345;42.694;23.346;2023-11-19T09:05:24;95765.84;;;4.55;59.24
77288;BME280;66345;42.694;23.346;2023-11-19T09:07:50;95758.06;;;4.53;58.97
77288;BME280;66345;42.694;23.346;2023-11-19T09:10:15;95765.38;;;4.22;59.30
77288;BME280;66345;42.694;23.346;2023-11-19T09:12:41;95760.75;;;3.97;60.68
77288;BME280;66345;42.694;23.346;2023-11-19T09:15:07;95757.22;;;4.25;59.83
77288;BME280;66345;42.694;23.346;2023-11-19T09:17:32;95745.69;;;4.36;58.89
77288;BME280;66345;42.694;23.346;2023-11-19T09:19:58;95758.69;;;4.47;58.46
77288;BME280;66345;42.694;23.346;2023-11-19T09:22:23;95764.81;;;4.65;57.88
77288;BME280;66345;42.694;23.346;2023-11-19T09:24:49;95780.41;;;4.39;58.87
77288;BME280;66345;42.694;23.346;2023-11-19T09:27:14;95769.56;;;4.52;58.38
77288;BME280;66345;42.694;23.346;2023-11-19T09:29:40;95789.41;;;4.27;59.38
77288;BME280;66345;42.694;23.346;2023-11-19T09:32:06;95789.72;;;4.24;59.29
77288;BME280;66345;42.694;23.346;2023-11-19T09:34:32;95783.91;;;4.21;59.57
77288;BME280;66345;42.694;23.346;2023-11-19T09:36:58;95764.53;;;4.22;59.79
77288;BME280;66345;42.694;23.346;2023-11-19T09:39:23;95760.00;;;4.24;59.62
77288;BME280;66345;42.694;23.346;2023-11-19T09:41:51;95756.66;;;4.22;59.26
77288;BME280;66345;42.694;23.346;2023-11-19T09:44:16;95750.22;;;4.06;59.93
77288;BME280;66345;42.694;23.346;2023-11-19T09:46:44;95738.50;;;3.91;59.79
77288;BME280;66345;42.694;23.346;2023-11-19T09:49:10;95734.34;;;3.98;60.05
77288;BME280;66345;42.694;23.346;2023-11-19T09:51:36;95710.44;;;4.01;59.45
77288;BME280;66345;42.694;23.346;2023-11-19T09:54:02;95700.88;;;4.10;59.26
77288;BME280;66345;42.694;23.346;2023-11-19T09:56:29;95705.53;;;4.26;59.27
77288;BME280;66345;42.694;23.346;2023-11-19T09:58:58;95714.91;;;4.28;58.62
77288;BME280;66345;42.694;23.346;2023-11-19T10:01:24;95704.25;;;4.30;58.47
77288;BME280;66345;42.694;23.346;2023-11-19T10:03:51;95703.25;;;4.40;58.52
77288;BME280;66345;42.694;23.346;2023-11-19T10:06:19;95712.56;;;4.53;58.56
77288;BME280;66345;42.694;23.346;2023-11-19T10:08:45;95700.88;;;4.47;58.97
77288;BME280;66345;42.694;23.346;2023-11-19T10:11:11;95694.16;;;4.35;58.55
77288;BME280;66345;42.694;23.346;2023-11-19T10:13:38;95699.69;;;4.59;58.37
77288;BME280;66345;42.694;23.346;2023-11-19T10:16:07;95700.25;;;4.53;58.60
77288;BME280;66345;42.694;23.346;2023-11-19T10:18:33;95696.53;;;5.01;57.25
77288;BME280;66345;42.694;23.346;2023-11-19T10:21:05;95706.03;;;5.73;54.76
77288;BME280;66345;42.694;23.346;2023-11-19T10:23:31;95709.84;;;5.17;55.61
77288;BME280;66345;42.694;23.346;2023-11-19T10:26:03;95707.91;;;4.74;57.47
77288;BME280;66345;42.694;23.346;2023-11-19T10:28:41;95717.88;;;4.43;58.48
77288;BME280;66345;42.694;23.346;2023-11-19T10:31:09;95710.31;;;4.30;59.20
77288;BME280;66345;42.694;23.346;2023-11-19T10:33:34;95695.78;;;4.36;58.93
77288;BME280;66345;42.694;23.346;2023-11-19T10:36:00;95677.66;;;4.42;58.86
77288;BME280;66345;42.694;23.346;2023-11-19T10:38:26;95684.41;;;4.45;59.19
77288;BME280;66345;42.694;23.346;2023-11-19T10:40:52;95685.63;;;4.51;58.49
77288;BME280;66345;42.694;23.346;2023-11-19T10:43:20;95687.91;;;4.36;59.48
77288;BME280;66345;42.694;23.346;2023-11-19T10:45:47;95681.50;;;4.48;58.41
77288;BME280;66345;42.694;23.346;2023-11-19T10:48:13;95693.25;;;4.44;58.41
77288;BME280;66345;42.694;23.346;2023-11-19T10:50:40;95694.16;;;4.62;58.20
77288;BME280;66345;42.694;23.346;2023-11-19T10:53:08;95692.78;;;4.58;57.71
77288;BME280;66345;42.694;23.346;2023-11-19T10:55:35;95680.19;;;4.62;58.29
77288;BME280;66345;42.694;23.346;2023-11-19T10:58:02;95691.28;;;4.56;58.60
77288;BME280;66345;42.694;23.346;2023-11-19T11:00:29;95687.00;;;4.55;57.54
77288;BME280;66345;42.694;23.346;2023-11-19T11:03:02;95689.31;;;4.58;58.46
77288;BME280;66345;42.694;23.346;2023-11-19T11:05:33;95683.91;;;4.59;58.07
77288;BME280;66345;42.694;23.346;2023-11-19T11:08:00;95672.75;;;4.75;56.98
77288;BME280;66345;42.694;23.346;2023-11-19T11:10:26;95669.56;;;4.99;56.90
77288;BME280;66345;42.694;23.346;2023-11-19T11:12:54;95652.69;;;4.74;57.27
77288;BME280;66345;42.694;23.346;2023-11-19T11:15:27;95659.84;;;4.82;57.03
77288;BME280;66345;42.694;23.346;2023-11-19T11:17:58;95657.00;;;4.93;57.13
77288;BME280;66345;42.694;23.346;2023-11-19T11:20:25;95646.56;;;5.01;56.92
77288;BME280;66345;42.694;23.346;2023-11-19T11:28:35;95657.22;;;5.17;56.61
77288;BME280;66345;42.694;23.346;2023-11-19T11:39:32;95652.91;;;5.34;55.57
77288;BME280;66345;42.694;23.346;2023-11-19T11:45:02;95631.88;;;5.34;56.13
77288;BME280;66345;42.694;23.346;2023-11-19T11:50:12;95623.44;;;4.87;56.94
77288;BME280;66345;42.694;23.346;2023-11-19T11:53:15;95631.47;;;4.85;57.95
77288;BME280;66345;42.694;23.346;2023-11-19T11:58:19;95626.38;;;4.84;57.80
77288;BME280;66345;42.694;23.346;2023-11-19T12:00:47;95625.59;;;4.73;57.21
77288;BME280;66345;42.694;23.346;2023-11-19T12:03:13;95631.91;;;4.63;57.82
77288;BME280;66345;42.694;23.346;2023-11-19T12:05:41;95627.00;;;4.68;58.13
77288;BME280;66345;42.694;23.346;2023-11-19T12:08:07;95618.84;;;4.71;58.29
77288;BME280;66345;42.694;23.346;2023-11-19T12:10:45;95621.31;;;4.90;57.25
77288;BME280;66345;42.694;23.346;2023-11-19T12:13:13;95618.75;;;4.98;57.61
77288;BME280;66345;42.694;23.346;2023-11-19T12:18:27;95608.03;;;4.92;56.38
77288;BME280;66345;42.694;23.346;2023-11-19T12:20:53;95606.28;;;4.83;57.02
77288;BME280;66345;42.694;23.346;2023-11-19T12:23:18;95603.38;;;4.86;57.93
77288;BME280;66345;42.694;23.346;2023-11-19T12:25:44;95599.22;;;5.01;57.47
77288;BME280;66345;42.694;23.346;2023-11-19T12:28:13;95599.84;;;4.95;57.05
77288;BME280;66345;42.694;23.346;2023-11-19T12:30:39;95599.00;;;4.94;56.80
77288;BME280;66345;42.694;23.346;2023-11-19T12:33:09;95589.00;;;4.98;57.33
77288;BME280;66345;42.694;23.346;2023-11-19T12:35:44;95587.94;;;4.91;57.73
77288;BME280;66345;42.694;23.346;2023-11-19T12:40:46;95581.50;;;5.03;57.30
77288;BME280;66345;42.694;23.346;2023-11-19T12:43:21;95571.56;;;4.97;57.33
77288;BME280;66345;42.694;23.346;2023-11-19T12:45:49;95576.78;;;4.89;57.99
77288;BME280;66345;42.694;23.346;2023-11-19T12:48:15;95563.63;;;4.89;57.40
77288;BME280;66345;42.694;23.346;2023-11-19T12:50:51;95570.91;;;4.95;57.35
77288;BME280;66345;42.694;23.346;2023-11-19T12:53:18;95567.78;;;4.91;57.31
77288;BME280;66345;42.694;23.346;2023-11-19T12:55:43;95571.06;;;4.93;58.23
77288;BME280;66345;42.694;23.346;2023-11-19T12:58:09;95566.56;;;4.86;57.71
77288;BME280;66345;42.694;23.346;2023-11-19T13:00:34;95552.28;;;4.88;57.73
77288;BME280;66345;42.694;23.346;2023-11-19T13:03:00;95553.78;;;4.91;58.17
77288;BME280;66345;42.694;23.346;2023-11-19T13:05:30;95555.50;;;5.00;57.91
77288;BME280;66345;42.694;23.346;2023-11-19T13:08:05;95568.66;;;5.00;58.24
77288;BME280;66345;42.694;23.346;2023-11-19T13:10:52;95559.72;;;4.93;57.85
77288;BME280;66345;42.694;23.346;2023-11-19T13:13:21;95554.69;;;4.99;58.05
77288;BME280;66345;42.694;23.346;2023-11-19T13:15:46;95552.63;;;5.11;58.15
77288;BME280;66345;42.694;23.346;2023-11-19T13:18:12;95565.41;;;5.06;57.68
77288;BME280;66345;42.694;23.346;2023-11-19T13:20:39;95546.69;;;5.09;57.67
77288;BME280;66345;42.694;23.346;2023-11-19T13:23:05;95545.06;;;5.08;57.29
77288;BME280;66345;42.694;23.346;2023-11-19T13:25:32;95536.78;;;5.03;57.62
77288;BME280;66345;42.694;23.346;2023-11-19T13:27:58;95522.22;;;5.09;58.54